Time;durP1;ratioP1;P1;durP2;ratioP2;P2;SDS_P1;SDS_P2;PMS_P1;PMS_P2;Temp;Humidity;BMP_temperature;BMP_pressure;BME280_temperature;BME280_humidity;BME280_pressure;Samples;Min_cycle;Max_cycle;Signal;HPM_P1;HPM_P2
2024/01/10 00:01:59;;;;;;;12.88;7.50;;;;;;;;;;5048790;28;20074;-62
2024/01/10 00:04:25;;;;;;;12.82;7.50;;;;;;;;;;5050838;28;20017;-62
2024/01/10 00:06:51;;;;;;;13.52;8.48;;;;;;;;;;5050927;28;20101;-61
2024/01/10 00:09:17;;;;;;;14.25;9.35;;;;;;;;;;5050447;28;20035;-63
2024/01/10 00:11:43;;;;;;;14.13;8.75;;;;;;;;;;5049786;28;20044;-62
2024/01/10 00:14:09;;;;;;;15.57;9.48;;;;;;;;;;5047739;28;20491;-61
2024/01/10 00:16:35;;;;;;;14.75;8.90;;;;;;;;;;5050110;28;20021;-59
2024/01/10 00:19:01;;;;;;;13.25;7.90;;;;;;;;;;5049834;28;20407;-61
2024/01/10 00:21:27;;;;;;;13.00;7.65;;;;;;;;;;5049065;28;20033;-61
2024/01/10 00:23:53;;;;;;;12.90;7.57;;;;;;;;;;5049827;28;20035;-62
2024/01/10 00:26:19;;;;;;;13.15;7.80;;;;;;;;;;5049736;28;20060;-62
2024/01/10 00:28:46;;;;;;;13.05;7.63;;;;;;;;;;5049562;28;20049;-62
2024/01/10 00:31:12;;;;;;;12.98;7.93;;;;;;;;;;5048541;28;20091;-59
2024/01/10 00:33:38;;;;;;;13.02;7.70;;;;;;;;;;5048004;28;20025;-63
2024/01/10 00:36:04;;;;;;;12.88;7.40;;;;;;;;;;5047754;28;20048;-62
2024/01/10 00:38:30;;;;;;;13.95;8.93;;;;;;;;;;5047857;28;20028;-62
2024/01/10 00:40:56;;;;;;;12.70;7.43;;;;;;;;;;5048929;28;20090;-62
2024/01/10 00:43:22;;;;;;;12.80;7.40;;;;;;;;;;5049536;28;20029;-62
2024/01/10 00:45:48;;;;;;;12.90;7.53;;;;;;;;;;5050278;28;20040;-63
2024/01/10 00:48:14;;;;;;;12.70;7.40;;;;;;;;;;5048181;28;20364;-63
2024/01/10 00:50:40;;;;;;;13.25;8.23;;;;;;;;;;5049298;28;20094;-63
2024/01/10 00:53:06;;;;;;;25.88;15.27;;;;;;;;;;5049027;28;20037;-62
2024/01/10 00:55:32;;;;;;;12.85;7.50;;;;;;;;;;5049396;28;20021;-63
2024/01/10 00:57:58;;;;;;;12.82;7.60;;;;;;;;;;5049659;28;20138;-62
2024/01/10 01:00:24;;;;;;;16.20;10.23;;;;;;;;;;5049585;28;20390;-63
2024/01/10 01:02:50;;;;;;;21.13;10.23;;;;;;;;;;5048891;28;20031;-61
2024/01/10 01:05:16;;;;;;;14.57;8.75;;;;;;;;;;5049580;28;20021;-61
2024/01/10 01:07:43;;;;;;;13.18;7.78;;;;;;;;;;5049426;28;20506;-63
2024/01/10 01:10:09;;;;;;;13.18;7.68;;;;;;;;;;5049459;28;20017;-62
2024/01/10 01:12:35;;;;;;;12.80;7.50;;;;;;;;;;5048320;28;20053;-63
2024/01/10 01:15:01;;;;;;;12.43;7.20;;;;;;;;;;5048190;28;20458;-63
2024/01/10 01:17:27;;;;;;;12.63;7.40;;;;;;;;;;5049238;28;20021;-62
2024/01/10 01:19:53;;;;;;;12.80;7.50;;;;;;;;;;5049302;28;20105;-61
2024/01/10 01:22:19;;;;;;;12.55;7.30;;;;;;;;;;5047386;28;20120;-63
2024/01/10 01:24:45;;;;;;;13.60;7.78;;;;;;;;;;5049203;28;20029;-64
2024/01/10 01:27:11;;;;;;;13.68;8.68;;;;;;;;;;5049343;28;20060;-63
2024/01/10 01:29:37;;;;;;;12.75;7.45;;;;;;;;;;5049492;28;20108;-62
2024/01/10 01:32:03;;;;;;;12.73;7.40;;;;;;;;;;5048657;28;20029;-63
2024/01/10 01:34:29;;;;;;;12.90;7.50;;;;;;;;;;5049441;28;20029;-60
2024/01/10 01:36:55;;;;;;;12.90;7.60;;;;;;;;;;5049296;28;20172;-63
2024/01/10 01:39:21;;;;;;;12.98;7.60;;;;;;;;;;5049338;28;20028;-63
2024/01/10 01:41:48;;;;;;;12.65;7.40;;;;;;;;;;5048300;28;20125;-63
2024/01/10 01:44:14;;;;;;;12.63;7.32;;;;;;;;;;5048929;28;20033;-63
2024/01/10 01:46:40;;;;;;;13.20;7.80;;;;;;;;;;5048993;28;20126;-62
2024/01/10 01:49:07;;;;;;;19.50;8.73;;;;;;;;;;5048977;28;20021;-63
2024/01/10 01:51:34;;;;;;;12.73;7.50;;;;;;;;;;5048110;28;20533;-63
2024/01/10 01:54:01;;;;;;;12.80;7.55;;;;;;;;;;5048742;28;20029;-63
2024/01/10 01:56:27;;;;;;;13.10;7.60;;;;;;;;;;5048827;28;20475;-61
2024/01/10 01:58:54;;;;;;;12.75;7.40;;;;;;;;;;5048943;28;20021;-63
2024/01/10 02:01:21;;;;;;;12.68;7.40;;;;;;;;;;5048125;28;20040;-63
2024/01/10 02:03:47;;;;;;;12.73;7.40;;;;;;;;;;5048867;28;20098;-63
2024/01/10 02:06:13;;;;;;;12.60;7.30;;;;;;;;;;5048914;28;20108;-63
2024/01/10 02:08:39;;;;;;;13.05;7.85;;;;;;;;;;5048921;28;20025;-61
2024/01/10 02:11:06;;;;;;;13.02;7.57;;;;;;;;;;5046780;28;20215;-61
2024/01/10 02:13:32;;;;;;;12.45;7.22;;;;;;;;;;5047490;28;20063;-62
2024/01/10 02:15:59;;;;;;;12.38;7.18;;;;;;;;;;5047575;28;20021;-62
2024/01/10 02:18:25;;;;;;;12.10;7.10;;;;;;;;;;5048565;28;20057;-62
2024/01/10 02:20:52;;;;;;;12.38;7.22;;;;;;;;;;5048632;28;20044;-61
2024/01/10 02:23:18;;;;;;;12.30;7.20;;;;;;;;;;5047468;28;20480;-61
2024/01/10 02:25:44;;;;;;;12.38;7.30;;;;;;;;;;5050515;28;20036;-60
2024/01/10 02:28:10;;;;;;;12.68;7.38;;;;;;;;;;5052752;28;20024;-61
2024/01/10 02:30:37;;;;;;;13.02;7.57;;;;;;;;;;5051036;28;20086;-62
2024/01/10 02:33:03;;;;;;;12.80;7.45;;;;;;;;;;5052236;28;20025;-62
2024/01/10 02:35:30;;;;;;;12.50;7.28;;;;;;;;;;5052598;28;20036;-62
2024/01/10 02:37:56;;;;;;;12.40;7.25;;;;;;;;;;5053022;28;20085;-60
2024/01/10 02:40:22;;;;;;;13.02;7.57;;;;;;;;;;5052283;28;20031;-62
2024/01/10 02:42:48;;;;;;;12.70;7.40;;;;;;;;;;5051746;28;20021;-61
2024/01/10 02:45:14;;;;;;;12.80;7.70;;;;;;;;;;5051070;28;20621;-61
2024/01/10 02:47:40;;;;;;;12.48;7.22;;;;;;;;;;5052242;28;20029;-60
2024/01/10 02:50:06;;;;;;;35.03;32.30;;;;;;;;;;5052134;28;20032;-61
2024/01/10 02:52:32;;;;;;;12.77;7.45;;;;;;;;;;5051597;28;20021;-60
2024/01/10 02:54:58;;;;;;;12.50;7.45;;;;;;;;;;5052392;28;20029;-60
2024/01/10 02:57:24;;;;;;;13.25;8.25;;;;;;;;;;5052326;28;20032;-61
2024/01/10 02:59:50;;;;;;;12.20;7.10;;;;;;;;;;5050661;28;20021;-61
2024/01/10 03:02:16;;;;;;;12.77;7.40;;;;;;;;;;5051116;28;20472;-62
2024/01/10 03:04:43;;;;;;;12.80;7.45;;;;;;;;;;5051946;28;20077;-62
2024/01/10 03:07:09;;;;;;;13.07;7.68;;;;;;;;;;5050620;28;20025;-61
2024/01/10 03:09:35;;;;;;;12.75;7.43;;;;;;;;;;5050939;28;20025;-60
2024/01/10 03:12:01;;;;;;;12.80;7.43;;;;;;;;;;5051257;28;20074;-61
2024/01/10 03:14:27;;;;;;;13.45;8.35;;;;;;;;;;5049531;28;20025;-61
2024/01/10 03:16:53;;;;;;;15.18;11.73;;;;;;;;;;5051852;28;20360;-61
2024/01/10 03:19:19;;;;;;;12.73;7.40;;;;;;;;;;5051887;28;20021;-61
2024/01/10 03:21:45;;;;;;;12.80;7.47;;;;;;;;;;5049321;28;20029;-63
2024/01/10 03:24:11;;;;;;;12.82;7.50;;;;;;;;;;5051642;28;20032;-63
2024/01/10 03:26:37;;;;;;;12.93;7.53;;;;;;;;;;5050249;28;20483;-62
2024/01/10 03:29:04;;;;;;;12.43;7.30;;;;;;;;;;5051524;28;20025;-62
2024/01/10 03:31:30;;;;;;;12.80;7.50;;;;;;;;;;5049118;28;20033;-61
2024/01/10 03:33:59;;;;;;;12.90;7.50;;;;;;;;;;5051059;28;20083;-62
2024/01/10 03:36:25;;;;;;;12.57;7.30;;;;;;;;;;5049658;28;20120;-61
2024/01/10 03:38:52;;;;;;;12.63;7.40;;;;;;;;;;5051254;28;20068;-62
2024/01/10 03:41:19;;;;;;;14.13;8.30;;;;;;;;;;5050299;28;20419;-61
2024/01/10 03:43:45;;;;;;;12.95;7.55;;;;;;;;;;5051085;28;20119;-62
2024/01/10 03:46:11;;;;;;;13.10;7.70;;;;;;;;;;5050958;28;20029;-63
2024/01/10 03:48:38;;;;;;;12.90;7.63;;;;;;;;;;5050923;28;20090;-61
2024/01/10 03:51:04;;;;;;;12.82;7.40;;;;;;;;;;5050236;28;20172;-62
2024/01/10 03:53:31;;;;;;;12.48;7.28;;;;;;;;;;5050797;28;20065;-62
2024/01/10 03:55:57;;;;;;;13.25;7.85;;;;;;;;;;5051001;28;20047;-62
2024/01/10 03:58:24;;;;;;;13.10;7.85;;;;;;;;;;5050881;28;20058;-62
2024/01/10 04:00:50;;;;;;;13.18;7.75;;;;;;;;;;5073704;22;20079;-53
2024/01/10 04:03:16;;;;;;;16.80;8.98;;;;;;;;;;5112416;28;20079;-46
2024/01/10 04:05:42;;;;;;;13.15;7.82;;;;;;;;;;5111604;28;20031;-52
2024/01/10 04:08:08;;;;;;;13.20;7.70;;;;;;;;;;5111600;28;20415;-53
2024/01/10 04:10:34;;;;;;;13.30;7.80;;;;;;;;;;5112933;28;20020;-49
2024/01/10 04:13:00;;;;;;;12.70;7.45;;;;;;;;;;5111059;28;20441;-47
2024/01/10 04:15:26;;;;;;;13.07;7.80;;;;;;;;;;5113418;28;20020;-45
2024/01/10 04:17:52;;;;;;;13.05;7.75;;;;;;;;;;5113922;28;20462;-51
2024/01/10 04:20:18;;;;;;;16.25;8.80;;;;;;;;;;5112511;28;20030;-50
2024/01/10 04:22:44;;;;;;;13.27;8.05;;;;;;;;;;5112433;28;20030;-49
2024/01/10 04:25:11;;;;;;;13.32;7.82;;;;;;;;;;5112204;28;20027;-51
2024/01/10 04:27:37;;;;;;;13.57;8.10;;;;;;;;;;5111197;28;20572;-52
2024/01/10 04:30:03;;;;;;;12.88;7.57;;;;;;;;;;5112586;28;20477;-49
2024/01/10 04:32:30;;;;;;;13.10;7.80;;;;;;;;;;5111658;28;20072;-50
2024/01/10 04:34:55;;;;;;;12.60;7.32;;;;;;;;;;5112447;28;20454;-49
2024/01/10 04:37:22;;;;;;;12.45;7.28;;;;;;;;;;5111227;28;20047;-50
2024/01/10 04:39:48;;;;;;;12.65;7.32;;;;;;;;;;5111125;28;20106;-48
2024/01/10 04:42:14;;;;;;;12.23;7.15;;;;;;;;;;5111125;28;20122;-48
2024/01/10 04:44:40;;;;;;;12.75;7.40;;;;;;;;;;5110861;28;20030;-50
2024/01/10 04:47:07;;;;;;;13.02;7.65;;;;;;;;;;5111922;28;20578;-51
2024/01/10 04:49:33;;;;;;;13.20;7.72;;;;;;;;;;5110209;28;20030;-51
2024/01/10 04:51:59;;;;;;;12.65;7.32;;;;;;;;;;5109900;28;20020;-51
2024/01/10 04:54:25;;;;;;;12.98;7.57;;;;;;;;;;5110645;28;20107;-50
2024/01/10 04:56:51;;;;;;;13.00;7.68;;;;;;;;;;5111750;28;20465;-52
2024/01/10 04:59:17;;;;;;;13.38;8.00;;;;;;;;;;5112171;28;20019;-53
2024/01/10 05:01:43;;;;;;;13.55;8.73;;;;;;;;;;5111173;28;20111;-50
2024/01/10 05:04:09;;;;;;;13.25;8.07;;;;;;;;;;5112516;28;20039;-51
2024/01/10 05:06:35;;;;;;;13.23;8.00;;;;;;;;;;5110698;28;20035;-51
2024/01/10 05:09:01;;;;;;;13.10;7.93;;;;;;;;;;5111753;28;20031;-50
2024/01/10 05:11:27;;;;;;;13.13;7.85;;;;;;;;;;5110786;28;20034;-50
2024/01/10 05:13:53;;;;;;;13.15;7.88;;;;;;;;;;5110155;28;20024;-49
2024/01/10 05:16:19;;;;;;;13.48;8.35;;;;;;;;;;5111559;28;20015;-49
2024/01/10 05:18:46;;;;;;;14.60;8.98;;;;;;;;;;5111601;28;20156;-54
2024/01/10 05:21:12;;;;;;;13.27;8.02;;;;;;;;;;5109394;28;20694;-49
2024/01/10 05:23:40;;;;;;;13.13;7.80;;;;;;;;;;5110219;28;20625;-49
2024/01/10 05:26:06;;;;;;;13.43;8.18;;;;;;;;;;5110151;28;20019;-52
2024/01/10 05:28:32;;;;;;;13.43;8.15;;;;;;;;;;5111342;28;20058;-51
2024/01/10 05:30:59;;;;;;;13.48;8.23;;;;;;;;;;5109018;28;20035;-51
2024/01/10 05:33:25;;;;;;;13.30;8.10;;;;;;;;;;5111503;28;20027;-46
2024/01/10 05:35:50;;;;;;;12.95;7.80;;;;;;;;;;5109913;28;20023;-47
2024/01/10 05:38:17;;;;;;;12.95;7.53;;;;;;;;;;5111553;28;20434;-49
2024/01/10 05:40:43;;;;;;;13.07;7.60;;;;;;;;;;5110777;28;20038;-49
2024/01/10 05:43:10;;;;;;;13.02;7.63;;;;;;;;;;5110049;28;20041;-54
2024/01/10 05:45:36;;;;;;;12.93;7.60;;;;;;;;;;5110757;28;20165;-54
2024/01/10 05:48:03;;;;;;;12.93;7.90;;;;;;;;;;5110899;28;20031;-51
2024/01/10 05:50:29;;;;;;;13.18;7.85;;;;;;;;;;5110645;28;20019;-50
2024/01/10 05:52:55;;;;;;;13.32;8.13;;;;;;;;;;5110316;28;20389;-49
2024/01/10 05:55:23;;;;;;;13.25;8.07;;;;;;;;;;5110631;28;20016;-50
2024/01/10 05:57:49;;;;;;;13.00;7.70;;;;;;;;;;5110457;28;20027;-53
2024/01/10 06:00:16;;;;;;;14.77;11.38;;;;;;;;;;5110801;28;20034;-53
2024/01/10 06:02:42;;;;;;;13.25;7.90;;;;;;;;;;5125591;27;20028;-51
2024/01/10 06:05:10;;;;;;;12.93;7.55;;;;;;;;;;5109107;28;20031;-49
2024/01/10 06:07:36;;;;;;;12.98;7.60;;;;;;;;;;5110729;28;20024;-48
2024/01/10 06:10:02;;;;;;;13.05;7.70;;;;;;;;;;5110397;28;20035;-51
2024/01/10 06:12:28;;;;;;;13.25;8.15;;;;;;;;;;5109833;28;20015;-51
2024/01/10 06:14:55;;;;;;;13.15;7.82;;;;;;;;;;5109353;28;20023;-51
2024/01/10 06:17:21;;;;;;;13.35;7.90;;;;;;;;;;5110709;28;20366;-49
2024/01/10 06:19:47;;;;;;;13.43;8.30;;;;;;;;;;5110343;28;20101;-49
2024/01/10 06:22:13;;;;;;;13.30;8.00;;;;;;;;;;5108441;28;20119;-51
2024/01/10 06:24:40;;;;;;;13.25;7.90;;;;;;;;;;5110220;28;20176;-53
2024/01/10 06:27:06;;;;;;;13.38;7.88;;;;;;;;;;5110597;28;20038;-50
2024/01/10 06:29:33;;;;;;;24.23;12.98;;;;;;;;;;5110272;28;20020;-51
2024/01/10 06:32:01;;;;;;;13.27;8.10;;;;;;;;;;5125305;28;20073;-50
2024/01/10 06:34:27;;;;;;;13.32;8.05;;;;;;;;;;5110671;28;20042;-50
2024/01/10 06:36:53;;;;;;;13.13;7.82;;;;;;;;;;5109201;28;20394;-51
2024/01/10 06:39:19;;;;;;;13.18;7.78;;;;;;;;;;5109254;28;20042;-55
2024/01/10 06:41:48;;;;;;;13.15;7.70;;;;;;;;;;5109831;28;20444;-50
2024/01/10 06:44:14;;;;;;;13.05;7.57;;;;;;;;;;5109990;28;20083;-54
2024/01/10 06:46:40;;;;;;;13.23;7.88;;;;;;;;;;5110274;28;20116;-51
2024/01/10 06:49:07;;;;;;;13.25;7.88;;;;;;;;;;5110671;28;20081;-54
2024/01/10 06:51:33;;;;;;;12.98;7.57;;;;;;;;;;5109874;28;20047;-53
2024/01/10 06:54:05;;;;;;;12.68;7.40;;;;;;;;;;5110246;28;20100;-50
2024/01/10 06:56:34;;;;;;;27.65;9.20;;;;;;;;;;5109910;28;20011;-50
2024/01/10 06:59:01;;;;;;;15.15;8.38;;;;;;;;;;5109908;28;20020;-54
2024/01/10 07:01:27;;;;;;;12.75;7.38;;;;;;;;;;5107980;28;20489;-49
2024/01/10 07:03:56;;;;;;;12.88;7.47;;;;;;;;;;5108610;28;20365;-55
2024/01/10 07:06:23;;;;;;;13.13;7.88;;;;;;;;;;5108744;28;20062;-51
2024/01/10 07:08:49;;;;;;;12.80;7.43;;;;;;;;;;5110143;28;20020;-56
2024/01/10 07:11:16;;;;;;;12.65;7.38;;;;;;;;;;5109999;28;20023;-56
2024/01/10 07:13:42;;;;;;;20.83;12.75;;;;;;;;;;5112153;28;20035;-48
2024/01/10 07:16:08;;;;;;;13.07;7.80;;;;;;;;;;5112578;28;20020;-53
2024/01/10 07:18:34;;;;;;;13.38;8.00;;;;;;;;;;5112240;28;20384;-49
2024/01/10 07:21:00;;;;;;;13.60;8.35;;;;;;;;;;5110677;28;20016;-49
2024/01/10 07:23:27;;;;;;;13.18;7.78;;;;;;;;;;5113434;28;20039;-49
2024/01/10 07:25:53;;;;;;;13.43;8.05;;;;;;;;;;5113399;28;20030;-49
2024/01/10 07:28:19;;;;;;;13.38;8.10;;;;;;;;;;5113263;28;20027;-48
2024/01/10 07:30:45;;;;;;;13.25;7.80;;;;;;;;;;5112869;28;20462;-52
2024/01/10 07:33:11;;;;;;;13.30;7.95;;;;;;;;;;5112704;28;20047;-53
2024/01/10 07:35:38;;;;;;;13.05;7.78;;;;;;;;;;5113216;28;20027;-51
2024/01/10 07:38:07;;;;;;;13.10;7.90;;;;;;;;;;5111805;28;20069;-50
2024/01/10 07:40:33;;;;;;;13.20;7.95;;;;;;;;;;5113231;28;20035;-48
2024/01/10 07:42:59;;;;;;;13.27;7.97;;;;;;;;;;5111612;28;20020;-51
2024/01/10 07:45:25;;;;;;;13.07;7.70;;;;;;;;;;5113125;28;20031;-48
2024/01/10 07:47:51;;;;;;;13.70;8.52;;;;;;;;;;5112981;28;20032;-52
2024/01/10 07:50:17;;;;;;;13.13;7.65;;;;;;;;;;5113241;28;20023;-55
2024/01/10 07:52:45;;;;;;;15.18;9.57;;;;;;;;;;5112004;28;20060;-56
2024/01/10 07:55:12;;;;;;;13.40;8.23;;;;;;;;;;5112622;28;20088;-49
2024/01/10 07:57:38;;;;;;;15.02;11.60;;;;;;;;;;5113439;28;20020;-50
2024/01/10 08:00:10;;;;;;;13.70;9.10;;;;;;;;;;5112766;28;20048;-53
2024/01/10 08:02:36;;;;;;;13.40;8.15;;;;;;;;;;5112041;28;20110;-49
2024/01/10 08:05:09;;;;;;;13.35;8.10;;;;;;;;;;5112499;28;20028;-52
2024/01/10 08:07:37;;;;;;;13.80;8.85;;;;;;;;;;5112572;28;20027;-48
2024/01/10 08:10:04;;;;;;;12.95;7.80;;;;;;;;;;5111020;28;20504;-50
2024/01/10 08:12:30;;;;;;;12.82;7.47;;;;;;;;;;5110265;28;20081;-48
2024/01/10 08:14:56;;;;;;;13.00;7.70;;;;;;;;;;5111459;28;20032;-49
2024/01/10 08:17:23;;;;;;;13.05;7.70;;;;;;;;;;5112388;28;20426;-49
2024/01/10 08:19:49;;;;;;;12.93;7.70;;;;;;;;;;5111134;28;20076;-50
2024/01/10 08:22:15;;;;;;;15.45;9.85;;;;;;;;;;5108322;27;20080;-49
2024/01/10 08:24:41;;;;;;;12.95;7.82;;;;;;;;;;5120879;27;20026;-52
2024/01/10 08:27:07;;;;;;;12.95;7.50;;;;;;;;;;5115116;27;20031;-51
2024/01/10 08:29:33;;;;;;;13.38;8.35;;;;;;;;;;5111081;28;20036;-52
2024/01/10 08:31:59;;;;;;;20.38;13.30;;;;;;;;;;5111097;28;20032;-51
2024/01/10 08:34:26;;;;;;;13.23;7.90;;;;;;;;;;5111652;28;20477;-50
2024/01/10 08:36:53;;;;;;;14.13;8.57;;;;;;;;;;5113080;28;20473;-51
2024/01/10 08:39:19;;;;;;;13.05;7.60;;;;;;;;;;5112376;28;20020;-47
2024/01/10 08:41:45;;;;;;;13.45;8.10;;;;;;;;;;5111221;28;20629;-49
2024/01/10 08:44:11;;;;;;;14.25;8.95;;;;;;;;;;5112458;28;20027;-49
2024/01/10 08:46:37;;;;;;;21.33;11.45;;;;;;;;;;5113074;28;20027;-53
2024/01/10 08:49:03;;;;;;;14.05;8.20;;;;;;;;;;5112888;28;20469;-48
2024/01/10 08:51:30;;;;;;;13.60;8.48;;;;;;;;;;5109972;28;20054;-50
2024/01/10 08:53:56;;;;;;;13.27;7.95;;;;;;;;;;5110252;28;20027;-54
2024/01/10 08:56:22;;;;;;;13.40;8.02;;;;;;;;;;5111628;28;20473;-52
2024/01/10 08:58:48;;;;;;;13.35;8.15;;;;;;;;;;5111371;28;20122;-51
2024/01/10 09:01:14;;;;;;;17.65;10.68;;;;;;;;;;5110570;28;20076;-50
2024/01/10 09:03:40;;;;;;;13.43;8.30;;;;;;;;;;5111463;28;20038;-54
2024/01/10 09:06:10;;;;;;;13.50;8.50;;;;;;;;;;5111492;28;20027;-52
2024/01/10 09:08:36;;;;;;;13.25;8.07;;;;;;;;;;5111460;28;20550;-50
2024/01/10 09:11:02;;;;;;;19.02;16.92;;;;;;;;;;5110690;28;20052;-50
2024/01/10 09:13:29;;;;;;;13.20;8.20;;;;;;;;;;5110139;28;20024;-55
2024/01/10 09:15:55;;;;;;;13.40;8.05;;;;;;;;;;5108784;28;20110;-53
2024/01/10 09:18:21;;;;;;;16.00;9.35;;;;;;;;;;5111340;28;20397;-50
2024/01/10 09:20:48;;;;;;;13.55;8.40;;;;;;;;;;5111092;28;20422;-55
2024/01/10 09:23:14;;;;;;;13.25;7.97;;;;;;;;;;5099938;28;20059;-54
2024/01/10 09:25:40;;;;;;;13.60;8.85;;;;;;;;;;5091039;28;20024;-57
2024/01/10 09:28:06;;;;;;;13.52;8.30;;;;;;;;;;5090574;28;20553;-45
2024/01/10 09:30:32;;;;;;;13.40;8.20;;;;;;;;;;5090183;28;20107;-50
2024/01/10 09:32:59;;;;;;;13.43;8.30;;;;;;;;;;5090097;28;20024;-54
2024/01/10 09:35:24;;;;;;;13.75;8.52;;;;;;;;;;5088961;28;20474;-54
2024/01/10 09:37:50;;;;;;;13.85;9.23;;;;;;;;;;5090395;28;20103;-53
2024/01/10 09:40:17;;;;;;;14.25;9.13;;;;;;;;;;5088962;28;20655;-51
2024/01/10 09:42:50;;;;;;;13.40;8.20;;;;;;;;;;5088210;28;20434;-48
2024/01/10 09:45:18;;;;;;;13.48;8.40;;;;;;;;;;5090279;28;20536;-49
2024/01/10 09:47:46;;;;;;;13.80;9.10;;;;;;;;;;5090345;28;20498;-56
2024/01/10 09:50:12;;;;;;;13.32;7.90;;;;;;;;;;5090188;28;20408;-54
2024/01/10 09:52:42;;;;;;;13.13;7.82;;;;;;;;;;5088136;28;20062;-52
2024/01/10 09:55:09;;;;;;;13.57;8.50;;;;;;;;;;5088943;28;20460;-54
2024/01/10 09:57:36;;;;;;;13.43;8.48;;;;;;;;;;5101396;28;20096;-50
2024/01/10 10:00:04;;;;;;;14.15;9.88;;;;;;;;;;5109185;28;20023;-52
2024/01/10 10:02:32;;;;;;;13.70;8.80;;;;;;;;;;5103925;22;20040;-55
2024/01/10 10:05:04;;;;;;;13.70;8.88;;;;;;;;;;5088756;28;20031;-58
2024/01/10 10:07:30;;;;;;;14.52;10.02;;;;;;;;;;5089001;28;20024;-57
2024/01/10 10:09:56;;;;;;;14.75;10.70;;;;;;;;;;5088770;28;20100;-55
2024/01/10 10:12:23;;;;;;;13.65;8.75;;;;;;;;;;5088040;28;20047;-57
2024/01/10 10:14:49;;;;;;;13.77;9.07;;;;;;;;;;5089068;28;20492;-57
2024/01/10 10:17:16;;;;;;;13.73;9.18;;;;;;;;;;5089144;28;20028;-56
2024/01/10 10:19:43;;;;;;;13.90;9.00;;;;;;;;;;5088859;28;20592;-53
2024/01/10 10:22:09;;;;;;;13.65;8.85;;;;;;;;;;5069937;28;20101;-56
2024/01/10 10:24:35;;;;;;;13.80;9.10;;;;;;;;;;5088549;28;20024;-55
2024/01/10 10:27:01;;;;;;;14.00;9.35;;;;;;;;;;5070531;28;20035;-55
2024/01/10 10:29:27;;;;;;;13.48;8.45;;;;;;;;;;5069941;28;20405;-53
2024/01/10 10:31:53;;;;;;;13.63;8.70;;;;;;;;;;5087755;28;20523;-55
2024/01/10 10:34:22;;;;;;;13.52;8.43;;;;;;;;;;5088567;28;20127;-55
2024/01/10 10:36:48;;;;;;;13.57;8.57;;;;;;;;;;5088601;28;20021;-57
2024/01/10 10:39:18;;;;;;;13.80;9.15;;;;;;;;;;5088667;28;20024;-56
2024/01/10 10:41:45;;;;;;;14.10;9.55;;;;;;;;;;5087716;28;20028;-56
2024/01/10 10:44:12;;;;;;;13.90;9.35;;;;;;;;;;5088067;28;20036;-54
2024/01/10 10:46:39;;;;;;;13.70;9.07;;;;;;;;;;5090293;28;20024;-55
2024/01/10 10:49:14;;;;;;;13.55;8.68;;;;;;;;;;5074166;28;20032;-52
2024/01/10 10:51:41;;;;;;;13.65;9.00;;;;;;;;;;5073461;28;20028;-54
2024/01/10 10:54:08;;;;;;;16.10;11.48;;;;;;;;;;5092407;28;20024;-55
2024/01/10 10:56:37;;;;;;;13.75;9.05;;;;;;;;;;5092744;28;20240;-53
2024/01/10 10:59:03;;;;;;;13.65;8.98;;;;;;;;;;5092112;28;20106;-57
2024/01/10 11:01:30;;;;;;;13.68;8.90;;;;;;;;;;5090947;28;20335;-54
2024/01/10 11:03:57;;;;;;;14.20;9.90;;;;;;;;;;5091884;28;20020;-56
2024/01/10 11:06:23;;;;;;;15.85;10.95;;;;;;;;;;5073649;28;20024;-56
2024/01/10 11:08:51;;;;;;;13.88;9.30;;;;;;;;;;5091715;28;20474;-56
2024/01/10 11:11:20;;;;;;;17.75;12.30;;;;;;;;;;5071826;28;20020;-55
2024/01/10 11:14:04;;;;;;;16.35;10.43;;;;;;;;;;5078277;28;20050;-56
2024/01/10 11:16:39;;;;;;;14.40;10.80;;;;;;;;;;5090610;28;20035;-54
2024/01/10 11:19:24;;;;;;;14.00;9.75;;;;;;;;;;5072746;28;20482;-61
2024/01/10 11:22:29;;;;;;;14.60;11.10;;;;;;;;;;5090470;28;20103;-57
2024/01/10 11:24:55;;;;;;;14.73;11.63;;;;;;;;;;5048383;28;20033;-52
2024/01/10 11:27:22;;;;;;;14.07;10.18;;;;;;;;;;5048518;28;20025;-53
2024/01/10 11:29:49;;;;;;;14.55;10.73;;;;;;;;;;5068464;28;20486;-55
2024/01/10 11:32:15;;;;;;;14.50;11.13;;;;;;;;;;5090916;28;20111;-57
2024/01/10 11:35:01;;;;;;;16.85;11.45;;;;;;;;;;5072442;28;20036;-53
2024/01/10 11:37:42;;;;;;;14.27;10.57;;;;;;;;;;5091602;28;20016;-55
2024/01/10 11:40:11;;;;;;;15.35;11.70;;;;;;;;;;5091634;28;20028;-57
2024/01/10 11:42:44;;;;;;;14.10;10.13;;;;;;;;;;5090298;28;20397;-56
2024/01/10 11:45:10;;;;;;;16.42;11.05;;;;;;;;;;5091350;28;20028;-54
2024/01/10 11:47:42;;;;;;;15.18;11.50;;;;;;;;;;5091112;28;20024;-48
2024/01/10 11:50:09;;;;;;;17.08;12.00;;;;;;;;;;5091092;28;20354;-55
2024/01/10 11:52:37;;;;;;;14.18;10.23;;;;;;;;;;5071986;28;20070;-54
2024/01/10 11:55:04;;;;;;;14.20;10.30;;;;;;;;;;5090807;28;20466;-50
2024/01/10 11:57:33;;;;;;;14.10;10.20;;;;;;;;;;5090415;28;20454;-57
2024/01/10 12:00:00;;;;;;;14.60;10.80;;;;;;;;;;5090595;28;20457;-56
2024/01/10 12:02:27;;;;;;;18.20;12.95;;;;;;;;;;5089623;28;20586;-53
2024/01/10 12:04:54;;;;;;;19.40;10.98;;;;;;;;;;5090313;28;20023;-54
2024/01/10 12:07:21;;;;;;;14.20;10.60;;;;;;;;;;5090513;28;20195;-54
2024/01/10 12:09:47;;;;;;;14.05;9.98;;;;;;;;;;5090480;28;20402;-54
2024/01/10 12:12:14;;;;;;;14.82;10.82;;;;;;;;;;5071252;28;20028;-53
2024/01/10 12:14:40;;;;;;;27.70;13.07;;;;;;;;;;5070163;28;20043;-56
2024/01/10 12:17:10;;;;;;;14.50;10.52;;;;;;;;;;5070032;28;20020;-56
2024/01/10 12:19:37;;;;;;;13.95;9.77;;;;;;;;;;5070187;28;20017;-54
2024/01/10 12:22:03;;;;;;;14.30;10.20;;;;;;;;;;5069481;28;20100;-53
2024/01/10 12:24:29;;;;;;;14.18;10.20;;;;;;;;;;5085450;28;20032;-57
2024/01/10 12:26:56;;;;;;;14.05;10.10;;;;;;;;;;5089853;28;20027;-55
2024/01/10 12:29:22;;;;;;;14.15;10.52;;;;;;;;;;5089882;28;20102;-52
2024/01/10 12:31:49;;;;;;;13.95;9.85;;;;;;;;;;5088954;28;20024;-53
2024/01/10 12:34:15;;;;;;;17.75;11.25;;;;;;;;;;5081512;28;20034;-52
2024/01/10 12:36:44;;;;;;;14.98;10.48;;;;;;;;;;5089661;28;20369;-55
2024/01/10 12:39:12;;;;;;;13.93;9.70;;;;;;;;;;5089875;28;20052;-56
2024/01/10 12:41:38;;;;;;;14.35;10.98;;;;;;;;;;5089501;28;20088;-52
2024/01/10 12:44:06;;;;;;;14.48;11.57;;;;;;;;;;5090228;28;20028;-51
2024/01/10 12:46:32;;;;;;;20.00;17.95;;;;;;;;;;5089889;28;20039;-53
2024/01/10 12:49:04;;;;;;;14.40;10.85;;;;;;;;;;5089821;28;20059;-53
2024/01/10 12:51:31;;;;;;;14.18;10.40;;;;;;;;;;5088537;28;20028;-51
2024/01/10 12:54:00;;;;;;;14.70;11.18;;;;;;;;;;5083876;28;20028;-52
2024/01/10 12:56:27;;;;;;;14.38;10.73;;;;;;;;;;5089478;28;20081;-50
2024/01/10 12:58:54;;;;;;;14.40;10.50;;;;;;;;;;5081543;28;20025;-52
2024/01/10 13:01:20;;;;;;;15.63;10.85;;;;;;;;;;5088786;28;20036;-52
2024/01/10 13:03:48;;;;;;;18.02;11.05;;;;;;;;;;5081332;28;20028;-53
2024/01/10 13:06:14;;;;;;;14.05;9.82;;;;;;;;;;5089126;28;20047;-50
2024/01/10 13:08:40;;;;;;;14.15;10.30;;;;;;;;;;5080325;28;20035;-49
2024/01/10 13:11:09;;;;;;;14.10;10.10;;;;;;;;;;5088200;28;20102;-54
2024/01/10 13:13:38;;;;;;;14.10;10.15;;;;;;;;;;5089396;28;20027;-50
2024/01/10 13:16:05;;;;;;;14.32;10.45;;;;;;;;;;5088808;28;20081;-51
2024/01/10 13:18:31;;;;;;;43.20;20.17;;;;;;;;;;5089181;28;20034;-51
2024/01/10 13:20:57;;;;;;;14.40;11.00;;;;;;;;;;5079829;28;20590;-52
2024/01/10 13:23:24;;;;;;;15.13;11.27;;;;;;;;;;5089037;28;20020;-50
2024/01/10 13:25:50;;;;;;;16.98;11.15;;;;;;;;;;5088812;28;20020;-52
2024/01/10 13:28:16;;;;;;;14.40;11.20;;;;;;;;;;5088939;28;20020;-55
2024/01/10 13:30:43;;;;;;;14.35;10.85;;;;;;;;;;5087160;28;20082;-55
2024/01/10 13:33:09;;;;;;;14.02;10.25;;;;;;;;;;5062698;28;20016;-51
2024/01/10 13:35:35;;;;;;;14.32;10.80;;;;;;;;;;5070771;28;20027;-51
2024/01/10 13:38:01;;;;;;;14.10;10.30;;;;;;;;;;5088960;28;20097;-51
2024/01/10 13:40:27;;;;;;;14.20;10.48;;;;;;;;;;5088667;28;20490;-52
2024/01/10 13:42:54;;;;;;;14.20;10.32;;;;;;;;;;5083276;28;20016;-47
2024/01/10 13:45:21;;;;;;;14.20;10.57;;;;;;;;;;5073244;28;20065;-51
2024/01/10 13:47:49;;;;;;;14.32;10.90;;;;;;;;;;5072341;28;20031;-49
2024/01/10 13:50:15;;;;;;;14.38;10.77;;;;;;;;;;5084023;28;20592;-53
2024/01/10 13:52:41;;;;;;;14.30;10.70;;;;;;;;;;5088027;28;20032;-54
2024/01/10 13:55:07;;;;;;;14.20;10.45;;;;;;;;;;5089500;28;20497;-49
2024/01/10 13:57:34;;;;;;;14.38;10.90;;;;;;;;;;5089508;28;20020;-53
2024/01/10 14:00:00;;;;;;;14.27;10.70;;;;;;;;;;5089064;28;20032;-55
2024/01/10 14:02:26;;;;;;;14.40;11.02;;;;;;;;;;5088036;28;20076;-54
2024/01/10 14:04:59;;;;;;;14.50;11.30;;;;;;;;;;5088805;28;20032;-54
2024/01/10 14:07:25;;;;;;;14.40;10.90;;;;;;;;;;5088673;28;20505;-49
2024/01/10 14:09:54;;;;;;;14.45;11.40;;;;;;;;;;5088735;28;20032;-53
2024/01/10 14:12:20;;;;;;;14.48;11.23;;;;;;;;;;5069703;28;20409;-55
2024/01/10 14:14:46;;;;;;;14.32;10.88;;;;;;;;;;5088504;28;20027;-54
2024/01/10 14:17:12;;;;;;;14.20;10.38;;;;;;;;;;5088509;28;20024;-52
2024/01/10 14:19:38;;;;;;;15.02;12.55;;;;;;;;;;5088518;28;20454;-54
2024/01/10 14:22:04;;;;;;;14.20;10.52;;;;;;;;;;5090253;28;20020;-53
2024/01/10 14:24:32;;;;;;;14.43;10.88;;;;;;;;;;5091719;28;20039;-55